sensor_id;sensor_type;location;lat;lon;timestamp;temperature;humidity
2897;DHT22;1458;49.728;9.228;2022-10-22T00:00:43;13.50;99.90
2897;DHT22;1458;49.728;9.228;2022-10-22T00:03:10;13.50;99.90
2897;DHT22;1458;49.728;9.228;2022-10-22T00:05:38;13.70;99.90
2897;DHT22;1458;49.728;9.228;2022-10-22T00:08:05;13.60;99.90
2897;DHT22;1458;49.728;9.228;2022-10-22T00:10:33;13.60;99.90
2897;DHT22;1458;49.728;9.228;2022-10-22T00:13:02;13.70;99.90
2897;DHT22;1458;49.728;9.228;2022-10-22T00:15:30;13.70;99.90
2897;DHT22;1458;49.728;9.228;2022-10-22T00:17:59;13.70;99.90
2897;DHT22;1458;49.728;9.228;2022-10-22T00:20:26;13.70;99.90
2897;DHT22;1458;49.728;9.228;2022-10-22T00:22:54;13.80;99.90
2897;DHT22;1458;49.728;9.228;2022-10-22T00:25:21;13.70;99.90
2897;DHT22;1458;49.728;9.228;2022-10-22T00:27:50;13.70;99.90
2897;DHT22;1458;49.728;9.228;2022-10-22T00:30:21;13.70;99.90
2897;DHT22;1458;49.728;9.228;2022-10-22T00:32:49;13.90;99.90
2897;DHT22;1458;49.728;9.228;2022-10-22T00:35:16;14.00;99.90
2897;DHT22;1458;49.728;9.228;2022-10-22T00:37:44;14.00;99.90
2897;DHT22;1458;49.728;9.228;2022-10-22T00:40:12;14.10;99.90
2897;DHT22;1458;49.728;9.228;2022-10-22T00:42:40;14.20;99.90
2897;DHT22;1458;49.728;9.228;2022-10-22T00:45:21;14.10;99.90
2897;DHT22;1458;49.728;9.228;2022-10-22T00:47:54;14.10;99.90
2897;DHT22;1458;49.728;9.228;2022-10-22T00:50:30;14.00;99.90
2897;DHT22;1458;49.728;9.228;2022-10-22T00:53:03;13.90;99.90
2897;DHT22;1458;49.728;9.228;2022-10-22T00:55:33;14.00;99.90
2897;DHT22;1458;49.728;9.228;2022-10-22T00:58:01;13.90;99.90
2897;DHT22;1458;49.728;9.228;2022-10-22T01:00:31;13.90;99.90
2897;DHT22;1458;49.728;9.228;2022-10-22T01:02:59;13.80;99.90
2897;DHT22;1458;49.728;9.228;2022-10-22T01:05:30;14.00;99.90
2897;DHT22;1458;49.728;9.228;2022-10-22T01:08:04;14.10;99.90
2897;DHT22;1458;49.728;9.228;2022-10-22T01:10:48;14.00;99.90
2897;DHT22;1458;49.728;9.228;2022-10-22T01:13:32;13.80;99.90
2897;DHT22;1458;49.728;9.228;2022-10-22T01:16:12;13.70;99.90
2897;DHT22;1458;49.728;9.228;2022-10-22T01:18:48;13.70;99.90
2897;DHT22;1458;49.728;9.228;2022-10-22T01:21:25;13.60;99.90
2897;DHT22;1458;49.728;9.228;2022-10-22T01:24:18;13.60;99.90
2897;DHT22;1458;49.728;9.228;2022-10-22T01:26:59;13.60;99.90
2897;DHT22;1458;49.728;9.228;2022-10-22T01:29:37;13.50;99.90
2897;DHT22;1458;49.728;9.228;2022-10-22T01:32:12;13.50;99.90
2897;DHT22;1458;49.728;9.228;2022-10-22T01:34:45;13.40;99.90
2897;DHT22;1458;49.728;9.228;2022-10-22T01:37:15;13.50;99.90
2897;DHT22;1458;49.728;9.228;2022-10-22T01:39:45;13.50;99.90
2897;DHT22;1458;49.728;9.228;2022-10-22T01:42:14;13.40;99.90
2897;DHT22;1458;49.728;9.228;2022-10-22T01:44:43;13.40;99.90
2897;DHT22;1458;49.728;9.228;2022-10-22T01:47:20;13.50;99.90
2897;DHT22;1458;49.728;9.228;2022-10-22T01:50:14;13.50;99.90
2897;DHT22;1458;49.728;9.228;2022-10-22T01:53:08;13.60;99.90
2897;DHT22;1458;49.728;9.228;2022-10-22T01:58:44;13.50;99.90
2897;DHT22;1458;49.728;9.228;2022-10-22T02:01:31;13.50;99.90
2897;DHT22;1458;49.728;9.228;2022-10-22T02:04:09;13.40;99.90
2897;DHT22;1458;49.728;9.228;2022-10-22T02:06:42;13.40;99.90
2897;DHT22;1458;49.728;9.228;2022-10-22T02:09:13;13.40;99.90
2897;DHT22;1458;49.728;9.228;2022-10-22T02:11:42;13.50;99.90
2897;DHT22;1458;49.728;9.228;2022-10-22T02:14:11;13.70;99.90
2897;DHT22;1458;49.728;9.228;2022-10-22T02:16:45;13.90;99.90
2897;DHT22;1458;49.728;9.228;2022-10-22T02:19:22;14.00;99.90
2897;DHT22;1458;49.728;9.228;2022-10-22T02:21:52;14.10;99.90
2897;DHT22;1458;49.728;9.228;2022-10-22T02:24:20;14.30;99.90
2897;DHT22;1458;49.728;9.228;2022-10-22T02:26:54;14.30;99.90
2897;DHT22;1458;49.728;9.228;2022-10-22T02:29:27;14.30;99.90
2897;DHT22;1458;49.728;9.228;2022-10-22T02:32:08;14.30;99.90
2897;DHT22;1458;49.728;9.228;2022-10-22T02:34:38;14.30;99.90
2897;DHT22;1458;49.728;9.228;2022-10-22T02:37:06;14.30;99.90
2897;DHT22;1458;49.728;9.228;2022-10-22T02:39:36;14.20;99.90
2897;DHT22;1458;49.728;9.228;2022-10-22T02:42:05;14.20;99.90
2897;DHT22;1458;49.728;9.228;2022-10-22T02:44:32;14.30;99.90
2897;DHT22;1458;49.728;9.228;2022-10-22T02:47:08;14.20;99.90
2897;DHT22;1458;49.728;9.228;2022-10-22T02:49:36;14.20;99.90
2897;DHT22;1458;49.728;9.228;2022-10-22T02:52:03;14.20;99.90
2897;DHT22;1458;49.728;9.228;2022-10-22T02:54:33;14.20;99.90
2897;DHT22;1458;49.728;9.228;2022-10-22T02:57:01;14.10;99.90
2897;DHT22;1458;49.728;9.228;2022-10-22T02:59:30;14.00;99.90
2897;DHT22;1458;49.728;9.228;2022-10-22T03:01:57;14.10;99.90
2897;DHT22;1458;49.728;9.228;2022-10-22T03:04:27;14.00;99.90
2897;DHT22;1458;49.728;9.228;2022-10-22T03:06:55;14.10;99.90
2897;DHT22;1458;49.728;9.228;2022-10-22T03:09:23;14.10;99.90
2897;DHT22;1458;49.728;9.228;2022-10-22T03:11:50;14.10;99.90
2897;DHT22;1458;49.728;9.228;2022-10-22T03:14:18;14.20;99.90
2897;DHT22;1458;49.728;9.228;2022-10-22T03:16:45;14.30;99.90
2897;DHT22;1458;49.728;9.228;2022-10-22T03:19:13;14.30;99.90
2897;DHT22;1458;49.728;9.228;2022-10-22T03:21:46;14.50;99.90
2897;DHT22;1458;49.728;9.228;2022-10-22T03:24:20;14.50;99.90
2897;DHT22;1458;49.728;9.228;2022-10-22T03:26:53;14.50;99.90
2897;DHT22;1458;49.728;9.228;2022-10-22T03:29:23;14.30;99.90
2897;DHT22;1458;49.728;9.228;2022-10-22T03:31:56;14.20;99.90
2897;DHT22;1458;49.728;9.228;2022-10-22T03:34:24;14.20;99.90
2897;DHT22;1458;49.728;9.228;2022-10-22T03:36:55;14.10;99.90
2897;DHT22;1458;49.728;9.228;2022-10-22T03:39:24;14.10;99.90
2897;DHT22;1458;49.728;9.228;2022-10-22T03:41:53;14.00;99.90
2897;DHT22;1458;49.728;9.228;2022-10-22T03:44:21;14.10;99.90
2897;DHT22;1458;49.728;9.228;2022-10-22T03:46:51;14.10;99.90
2897;DHT22;1458;49.728;9.228;2022-10-22T03:49:21;14.00;99.90
2897;DHT22;1458;49.728;9.228;2022-10-22T03:51:49;14.00;99.90
2897;DHT22;1458;49.728;9.228;2022-10-22T03:54:20;14.00;99.90
2897;DHT22;1458;49.728;9.228;2022-10-22T03:56:48;13.90;99.90
2897;DHT22;1458;49.728;9.228;2022-10-22T03:59:16;13.90;99.90
2897;DHT22;1458;49.728;9.228;2022-10-22T04:01:44;13.90;99.90
2897;DHT22;1458;49.728;9.228;2022-10-22T04:04:11;13.90;99.90
2897;DHT22;1458;49.728;9.228;2022-10-22T04:06:41;13.80;99.90
2897;DHT22;1458;49.728;9.228;2022-10-22T04:09:10;13.80;99.90
2897;DHT22;1458;49.728;9.228;2022-10-22T04:11:42;14.00;99.90
2897;DHT22;1458;49.728;9.228;2022-10-22T04:14:09;14.00;99.90
2897;DHT22;1458;49.728;9.228;2022-10-22T04:16:39;14.00;99.90
2897;DHT22;1458;49.728;9.228;2022-10-22T04:19:09;14.10;99.90
2897;DHT22;1458;49.728;9.228;2022-10-22T04:21:39;14.00;99.90
2897;DHT22;1458;49.728;9.228;2022-10-22T04:24:06;14.00;99.90
2897;DHT22;1458;49.728;9.228;2022-10-22T04:26:34;14.00;99.90
2897;DHT22;1458;49.728;9.228;2022-10-22T04:29:03;14.00;99.90
2897;DHT22;1458;49.728;9.228;2022-10-22T04:31:33;14.00;99.90
2897;DHT22;1458;49.728;9.228;2022-10-22T04:34:02;14.00;99.90
2897;DHT22;1458;49.728;9.228;2022-10-22T04:36:32;14.00;99.90
2897;DHT22;1458;49.728;9.228;2022-10-22T04:39:02;14.00;99.90
2897;DHT22;1458;49.728;9.228;2022-10-22T04:41:32;14.10;99.90
2897;DHT22;1458;49.728;9.228;2022-10-22T04:44:05;14.10;99.90
2897;DHT22;1458;49.728;9.228;2022-10-22T04:46:35;14.00;99.90
2897;DHT22;1458;49.728;9.228;2022-10-22T04:49:06;13.90;99.90
2897;DHT22;1458;49.728;9.228;2022-10-22T04:51:33;13.80;99.90
2897;DHT22;1458;49.728;9.228;2022-10-22T04:54:02;13.70;99.90
2897;DHT22;1458;49.728;9.228;2022-10-22T04:56:31;13.60;99.90
2897;DHT22;1458;49.728;9.228;2022-10-22T04:59:07;13.60;99.90
2897;DHT22;1458;49.728;9.228;2022-10-22T05:01:41;13.50;99.90
2897;DHT22;1458;49.728;9.228;2022-10-22T05:04:12;13.50;99.90
2897;DHT22;1458;49.728;9.228;2022-10-22T05:06:42;13.50;99.90
2897;DHT22;1458;49.728;9.228;2022-10-22T05:09:12;13.50;99.90
2897;DHT22;1458;49.728;9.228;2022-10-22T05:11:43;13.30;99.90
2897;DHT22;1458;49.728;9.228;2022-10-22T05:14:19;13.20;99.90
2897;DHT22;1458;49.728;9.228;2022-10-22T05:16:48;13.10;99.90
2897;DHT22;1458;49.728;9.228;2022-10-22T05:19:20;13.00;99.90
2897;DHT22;1458;49.728;9.228;2022-10-22T05:21:50;13.10;99.90
2897;DHT22;1458;49.728;9.228;2022-10-22T05:24:18;13.10;99.90
2897;DHT22;1458;49.728;9.228;2022-10-22T05:26:48;13.00;99.90
2897;DHT22;1458;49.728;9.228;2022-10-22T05:29:18;12.90;99.90
2897;DHT22;1458;49.728;9.228;2022-10-22T05:31:46;13.00;99.90
2897;DHT22;1458;49.728;9.228;2022-10-22T05:34:13;13.10;99.90
2897;DHT22;1458;49.728;9.228;2022-10-22T05:36:41;13.00;99.90
2897;DHT22;1458;49.728;9.228;2022-10-22T05:39:09;13.10;99.90
2897;DHT22;1458;49.728;9.228;2022-10-22T05:41:36;13.00;99.90
2897;DHT22;1458;49.728;9.228;2022-10-22T05:44:04;12.90;99.90
2897;DHT22;1458;49.728;9.228;2022-10-22T05:46:35;13.00;99.90
2897;DHT22;1458;49.728;9.228;2022-10-22T05:49:04;13.00;99.90
2897;DHT22;1458;49.728;9.228;2022-10-22T05:51:34;13.00;99.90
2897;DHT22;1458;49.728;9.228;2022-10-22T05:54:04;13.00;99.90
2897;DHT22;1458;49.728;9.228;2022-10-22T05:56:33;12.80;99.90
2897;DHT22;1458;49.728;9.228;2022-10-22T05:59:03;12.80;99.90
2897;DHT22;1458;49.728;9.228;2022-10-22T06:01:33;12.80;99.90
2897;DHT22;1458;49.728;9.228;2022-10-22T06:04:02;12.70;99.90
2897;DHT22;1458;49.728;9.228;2022-10-22T06:06:34;12.80;99.90
2897;DHT22;1458;49.728;9.228;2022-10-22T06:09:05;12.80;99.90
2897;DHT22;1458;49.728;9.228;2022-10-22T06:11:37;12.70;99.90
2897;DHT22;1458;49.728;9.228;2022-10-22T06:14:05;12.70;99.90
2897;DHT22;1458;49.728;9.228;2022-10-22T06:16:34;12.70;99.90
2897;DHT22;1458;49.728;9.228;2022-10-22T06:19:04;12.80;99.90
2897;DHT22;1458;49.728;9.228;2022-10-22T06:21:31;13.00;99.90
2897;DHT22;1458;49.728;9.228;2022-10-22T06:23:59;12.90;99.90
2897;DHT22;1458;49.728;9.228;2022-10-22T06:26:28;12.80;99.90
2897;DHT22;1458;49.728;9.228;2022-10-22T06:28:56;12.80;99.90
2897;DHT22;1458;49.728;9.228;2022-10-22T06:31:25;12.90;99.90
2897;DHT22;1458;49.728;9.228;2022-10-22T06:33:55;12.90;99.90
2897;DHT22;1458;49.728;9.228;2022-10-22T06:36:23;12.80;99.90
2897;DHT22;1458;49.728;9.228;2022-10-22T06:38:52;12.90;99.90
2897;DHT22;1458;49.728;9.228;2022-10-22T06:41:20;12.90;99.90
2897;DHT22;1458;49.728;9.228;2022-10-22T06:43:48;13.00;99.90
2897;DHT22;1458;49.728;9.228;2022-10-22T06:46:18;13.00;99.90
2897;DHT22;1458;49.728;9.228;2022-10-22T06:48:48;12.90;99.90
2897;DHT22;1458;49.728;9.228;2022-10-22T06:51:18;12.80;99.90
2897;DHT22;1458;49.728;9.228;2022-10-22T06:53:47;13.00;99.90
2897;DHT22;1458;49.728;9.228;2022-10-22T06:56:16;12.90;99.90
2897;DHT22;1458;49.728;9.228;2022-10-22T06:58:46;13.10;99.90
2897;DHT22;1458;49.728;9.228;2022-10-22T07:01:15;13.20;99.90
2897;DHT22;1458;49.728;9.228;2022-10-22T07:03:46;13.10;99.90
2897;DHT22;1458;49.728;9.228;2022-10-22T07:06:21;13.00;99.90
2897;DHT22;1458;49.728;9.228;2022-10-22T07:08:53;12.90;99.90
2897;DHT22;1458;49.728;9.228;2022-10-22T07:11:22;13.20;99.90
2897;DHT22;1458;49.728;9.228;2022-10-22T07:13:53;13.20;99.90
2897;DHT22;1458;49.728;9.228;2022-10-22T07:16:21;13.20;99.90
2897;DHT22;1458;49.728;9.228;2022-10-22T07:18:49;13.10;99.90
2897;DHT22;1458;49.728;9.228;2022-10-22T07:21:19;13.10;99.90
2897;DHT22;1458;49.728;9.228;2022-10-22T07:23:48;13.10;99.90
2897;DHT22;1458;49.728;9.228;2022-10-22T07:26:16;13.20;99.90
2897;DHT22;1458;49.728;9.228;2022-10-22T07:28:47;13.30;99.90
2897;DHT22;1458;49.728;9.228;2022-10-22T07:31:16;13.40;99.90
2897;DHT22;1458;49.728;9.228;2022-10-22T07:33:46;13.30;99.90
2897;DHT22;1458;49.728;9.228;2022-10-22T07:36:17;13.40;99.90
2897;DHT22;1458;49.728;9.228;2022-10-22T07:38:47;13.40;99.90
2897;DHT22;1458;49.728;9.228;2022-10-22T07:41:18;13.40;99.90
2897;DHT22;1458;49.728;9.228;2022-10-22T07:43:46;13.40;99.90
2897;DHT22;1458;49.728;9.228;2022-10-22T07:46:15;13.40;99.90
2897;DHT22;1458;49.728;9.228;2022-10-22T07:48:44;13.50;99.90
2897;DHT22;1458;49.728;9.228;2022-10-22T07:51:13;13.70;99.90
2897;DHT22;1458;49.728;9.228;2022-10-22T07:53:43;13.90;99.90
2897;DHT22;1458;49.728;9.228;2022-10-22T07:56:13;14.00;99.90
2897;DHT22;1458;49.728;9.228;2022-10-22T07:58:43;14.00;99.90
2897;DHT22;1458;49.728;9.228;2022-10-22T08:01:12;14.00;99.90
2897;DHT22;1458;49.728;9.228;2022-10-22T08:03:44;14.00;99.90
2897;DHT22;1458;49.728;9.228;2022-10-22T08:06:12;14.10;99.90
2897;DHT22;1458;49.728;9.228;2022-10-22T08:08:44;13.90;99.90
2897;DHT22;1458;49.728;9.228;2022-10-22T08:11:13;13.90;99.90
2897;DHT22;1458;49.728;9.228;2022-10-22T08:13:41;14.10;99.90
2897;DHT22;1458;49.728;9.228;2022-10-22T08:16:08;14.10;99.90
2897;DHT22;1458;49.728;9.228;2022-10-22T08:18:36;14.10;99.90
2897;DHT22;1458;49.728;9.228;2022-10-22T08:21:05;14.30;99.90
2897;DHT22;1458;49.728;9.228;2022-10-22T08:23:34;14.40;99.90
2897;DHT22;1458;49.728;9.228;2022-10-22T08:26:09;14.40;99.90
2897;DHT22;1458;49.728;9.228;2022-10-22T08:28:40;14.30;99.90
2897;DHT22;1458;49.728;9.228;2022-10-22T08:31:08;14.40;99.90
2897;DHT22;1458;49.728;9.228;2022-10-22T08:33:38;14.50;99.90
2897;DHT22;1458;49.728;9.228;2022-10-22T08:36:07;14.50;99.90
2897;DHT22;1458;49.728;9.228;2022-10-22T08:38:35;14.50;99.90
2897;DHT22;1458;49.728;9.228;2022-10-22T08:41:09;14.60;99.90
2897;DHT22;1458;49.728;9.228;2022-10-22T08:44:01;14.80;99.90
2897;DHT22;1458;49.728;9.228;2022-10-22T08:46:56;14.80;99.90
2897;DHT22;1458;49.728;9.228;2022-10-22T08:49:33;14.90;99.90
2897;DHT22;1458;49.728;9.228;2022-10-22T08:52:15;15.00;99.90
2897;DHT22;1458;49.728;9.228;2022-10-22T08:54:50;15.10;99.90
2897;DHT22;1458;49.728;9.228;2022-10-22T08:57:30;15.10;99.90
2897;DHT22;1458;49.728;9.228;2022-10-22T09:00:14;15.10;99.90
2897;DHT22;1458;49.728;9.228;2022-10-22T09:02:55;15.10;99.90
2897;DHT22;1458;49.728;9.228;2022-10-22T09:05:38;15.20;99.90
2897;DHT22;1458;49.728;9.228;2022-10-22T09:08:16;15.40;99.90
2897;DHT22;1458;49.728;9.228;2022-10-22T09:10:48;15.50;99.90
2897;DHT22;1458;49.728;9.228;2022-10-22T09:13:19;15.60;99.90
2897;DHT22;1458;49.728;9.228;2022-10-22T09:15:52;15.70;99.90
2897;DHT22;1458;49.728;9.228;2022-10-22T09:18:32;15.80;99.90
2897;DHT22;1458;49.728;9.228;2022-10-22T09:21:09;15.80;99.90
2897;DHT22;1458;49.728;9.228;2022-10-22T09:23:55;15.90;99.90
2897;DHT22;1458;49.728;9.228;2022-10-22T09:26:26;16.00;99.90
2897;DHT22;1458;49.728;9.228;2022-10-22T09:28:58;16.10;99.90
2897;DHT22;1458;49.728;9.228;2022-10-22T09:31:29;16.20;99.90
2897;DHT22;1458;49.728;9.228;2022-10-22T09:33:58;16.30;99.90
2897;DHT22;1458;49.728;9.228;2022-10-22T09:36:31;16.40;99.90
2897;DHT22;1458;49.728;9.228;2022-10-22T09:38:59;16.60;99.90
2897;DHT22;1458;49.728;9.228;2022-10-22T09:41:28;16.70;99.90
2897;DHT22;1458;49.728;9.228;2022-10-22T09:43:56;16.80;99.90
2897;DHT22;1458;49.728;9.228;2022-10-22T09:46:28;16.80;99.90
2897;DHT22;1458;49.728;9.228;2022-10-22T09:49:02;16.90;99.90
2897;DHT22;1458;49.728;9.228;2022-10-22T09:51:39;17.00;99.90
2897;DHT22;1458;49.728;9.228;2022-10-22T09:54:17;17.30;99.90
2897;DHT22;1458;49.728;9.228;2022-10-22T09:56:50;17.60;99.90
2897;DHT22;1458;49.728;9.228;2022-10-22T09:59:30;17.90;99.90
2897;DHT22;1458;49.728;9.228;2022-10-22T10:02:12;18.20;99.90
2897;DHT22;1458;49.728;9.228;2022-10-22T10:04:44;18.40;99.90
2897;DHT22;1458;49.728;9.228;2022-10-22T10:07:19;18.30;99.90
2897;DHT22;1458;49.728;9.228;2022-10-22T10:09:48;18.50;99.90
2897;DHT22;1458;49.728;9.228;2022-10-22T10:12:24;18.50;99.90
2897;DHT22;1458;49.728;9.228;2022-10-22T10:15:06;18.40;99.80
2897;DHT22;1458;49.728;9.228;2022-10-22T10:17:44;18.40;98.50
2897;DHT22;1458;49.728;9.228;2022-10-22T10:20:26;18.30;98.10
2897;DHT22;1458;49.728;9.228;2022-10-22T10:23:03;18.20;98.90
2897;DHT22;1458;49.728;9.228;2022-10-22T10:25:43;18.10;99.20
2897;DHT22;1458;49.728;9.228;2022-10-22T10:28:31;18.30;96.80
2897;DHT22;1458;49.728;9.228;2022-10-22T10:31:14;18.40;97.60
2897;DHT22;1458;49.728;9.228;2022-10-22T10:33:56;18.40;96.80
2897;DHT22;1458;49.728;9.228;2022-10-22T10:36:33;18.50;96.80
2897;DHT22;1458;49.728;9.228;2022-10-22T10:39:06;18.30;95.80
2897;DHT22;1458;49.728;9.228;2022-10-22T10:41:48;18.20;96.40
2897;DHT22;1458;49.728;9.228;2022-10-22T10:44:47;18.10;98.60
2897;DHT22;1458;49.728;9.228;2022-10-22T10:47:37;18.10;99.00
2897;DHT22;1458;49.728;9.228;2022-10-22T10:50:22;18.10;96.00
2897;DHT22;1458;49.728;9.228;2022-10-22T10:53:01;18.10;96.10
2897;DHT22;1458;49.728;9.228;2022-10-22T10:55:36;18.40;96.10
2897;DHT22;1458;49.728;9.228;2022-10-22T10:58:14;18.50;94.10
2897;DHT22;1458;49.728;9.228;2022-10-22T11:00:51;18.50;95.70
2897;DHT22;1458;49.728;9.228;2022-10-22T11:03:45;18.60;95.50
2897;DHT22;1458;49.728;9.228;2022-10-22T11:06:49;18.70;94.90
2897;DHT22;1458;49.728;9.228;2022-10-22T11:09:23;18.80;93.70
2897;DHT22;1458;49.728;9.228;2022-10-22T11:11:55;18.90;93.20
2897;DHT22;1458;49.728;9.228;2022-10-22T11:14:28;19.00;93.40
2897;DHT22;1458;49.728;9.228;2022-10-22T11:17:01;19.00;92.60
2897;DHT22;1458;49.728;9.228;2022-10-22T11:19:35;18.90;92.20
2897;DHT22;1458;49.728;9.228;2022-10-22T11:22:10;18.90;90.20
2897;DHT22;1458;49.728;9.228;2022-10-22T11:24:43;18.90;91.10
2897;DHT22;1458;49.728;9.228;2022-10-22T11:27:22;18.80;91.00
2897;DHT22;1458;49.728;9.228;2022-10-22T11:29:56;18.80;90.20
2897;DHT22;1458;49.728;9.228;2022-10-22T11:32:27;18.90;89.80
2897;DHT22;1458;49.728;9.228;2022-10-22T11:34:58;18.90;88.30
2897;DHT22;1458;49.728;9.228;2022-10-22T11:37:31;19.00;89.20
2897;DHT22;1458;49.728;9.228;2022-10-22T11:40:04;19.00;87.60
2897;DHT22;1458;49.728;9.228;2022-10-22T11:42:36;19.20;86.90
2897;DHT22;1458;49.728;9.228;2022-10-22T11:45:25;19.30;88.60
2897;DHT22;1458;49.728;9.228;2022-10-22T11:47:58;19.80;88.70
2897;DHT22;1458;49.728;9.228;2022-10-22T11:50:49;19.90;85.40
2897;DHT22;1458;49.728;9.228;2022-10-22T11:53:29;20.00;83.00
2897;DHT22;1458;49.728;9.228;2022-10-22T11:56:02;20.10;83.10
2897;DHT22;1458;49.728;9.228;2022-10-22T11:58:53;20.40;78.80
2897;DHT22;1458;49.728;9.228;2022-10-22T12:01:25;20.30;78.80
2897;DHT22;1458;49.728;9.228;2022-10-22T12:04:15;20.20;78.00
2897;DHT22;1458;49.728;9.228;2022-10-22T12:07:02;20.20;79.60
2897;DHT22;1458;49.728;9.228;2022-10-22T12:09:31;20.00;77.80
2897;DHT22;1458;49.728;9.228;2022-10-22T12:12:13;20.10;80.20
2897;DHT22;1458;49.728;9.228;2022-10-22T12:14:52;20.10;78.80
2897;DHT22;1458;49.728;9.228;2022-10-22T12:17:21;20.10;78.60
2897;DHT22;1458;49.728;9.228;2022-10-22T12:19:54;19.90;78.40
2897;DHT22;1458;49.728;9.228;2022-10-22T12:22:26;19.90;78.30
2897;DHT22;1458;49.728;9.228;2022-10-22T12:25:00;19.80;82.60
2897;DHT22;1458;49.728;9.228;2022-10-22T12:27:33;19.80;82.50
2897;DHT22;1458;49.728;9.228;2022-10-22T12:30:16;19.90;82.90
2897;DHT22;1458;49.728;9.228;2022-10-22T12:32:46;19.90;78.00
2897;DHT22;1458;49.728;9.228;2022-10-22T12:35:17;20.00;79.40
2897;DHT22;1458;49.728;9.228;2022-10-22T12:37:48;19.90;77.10
2897;DHT22;1458;49.728;9.228;2022-10-22T12:40:20;19.70;76.20
2897;DHT22;1458;49.728;9.228;2022-10-22T12:42:50;19.60;76.60
2897;DHT22;1458;49.728;9.228;2022-10-22T12:45:18;19.50;75.80
2897;DHT22;1458;49.728;9.228;2022-10-22T12:47:46;19.50;75.80
2897;DHT22;1458;49.728;9.228;2022-10-22T12:50:19;19.50;76.70
2897;DHT22;1458;49.728;9.228;2022-10-22T12:52:58;19.40;75.90
2897;DHT22;1458;49.728;9.228;2022-10-22T12:55:30;19.20;77.80
2897;DHT22;1458;49.728;9.228;2022-10-22T12:58:04;19.10;80.90
2897;DHT22;1458;49.728;9.228;2022-10-22T13:00:33;19.10;81.30
2897;DHT22;1458;49.728;9.228;2022-10-22T13:03:04;19.10;82.40
2897;DHT22;1458;49.728;9.228;2022-10-22T13:05:33;19.00;84.30
2897;DHT22;1458;49.728;9.228;2022-10-22T13:08:08;19.10;86.40
2897;DHT22;1458;49.728;9.228;2022-10-22T13:10:40;19.10;84.00
2897;DHT22;1458;49.728;9.228;2022-10-22T13:13:29;19.10;86.70
2897;DHT22;1458;49.728;9.228;2022-10-22T13:16:13;19.20;85.00
2897;DHT22;1458;49.728;9.228;2022-10-22T13:18:41;19.30;82.30
2897;DHT22;1458;49.728;9.228;2022-10-22T13:21:21;19.40;79.40
2897;DHT22;1458;49.728;9.228;2022-10-22T13:23:58;19.30;81.70
2897;DHT22;1458;49.728;9.228;2022-10-22T13:26:33;19.20;82.30
2897;DHT22;1458;49.728;9.228;2022-10-22T13:29:09;19.20;82.90
2897;DHT22;1458;49.728;9.228;2022-10-22T13:31:44;19.20;81.80
2897;DHT22;1458;49.728;9.228;2022-10-22T13:34:15;19.30;80.50
2897;DHT22;1458;49.728;9.228;2022-10-22T13:36:44;19.30;81.40
2897;DHT22;1458;49.728;9.228;2022-10-22T13:39:14;19.20;83.10
2897;DHT22;1458;49.728;9.228;2022-10-22T13:41:44;19.20;83.50
2897;DHT22;1458;49.728;9.228;2022-10-22T13:44:15;19.20;83.80
2897;DHT22;1458;49.728;9.228;2022-10-22T13:46:42;19.30;82.00
2897;DHT22;1458;49.728;9.228;2022-10-22T13:49:14;19.40;81.50
2897;DHT22;1458;49.728;9.228;2022-10-22T13:51:42;19.40;82.40
2897;DHT22;1458;49.728;9.228;2022-10-22T13:54:14;19.40;82.90
2897;DHT22;1458;49.728;9.228;2022-10-22T13:56:45;19.40;79.70
2897;DHT22;1458;49.728;9.228;2022-10-22T13:59:13;19.30;80.50
2897;DHT22;1458;49.728;9.228;2022-10-22T14:01:41;19.30;82.50
2897;DHT22;1458;49.728;9.228;2022-10-22T14:04:11;19.30;82.00
2897;DHT22;1458;49.728;9.228;2022-10-22T14:06:40;19.40;81.30
2897;DHT22;1458;49.728;9.228;2022-10-22T14:09:12;19.30;82.10
2897;DHT22;1458;49.728;9.228;2022-10-22T14:11:41;19.30;83.60
2897;DHT22;1458;49.728;9.228;2022-10-22T14:14:09;19.20;83.20
2897;DHT22;1458;49.728;9.228;2022-10-22T14:16:38;19.20;83.50
2897;DHT22;1458;49.728;9.228;2022-10-22T14:19:08;19.10;84.30
2897;DHT22;1458;49.728;9.228;2022-10-22T14:21:40;19.10;85.60
2897;DHT22;1458;49.728;9.228;2022-10-22T14:24:08;19.20;87.20
2897;DHT22;1458;49.728;9.228;2022-10-22T14:26:36;19.30;84.30
2897;DHT22;1458;49.728;9.228;2022-10-22T14:29:03;19.10;84.20
2897;DHT22;1458;49.728;9.228;2022-10-22T14:31:32;19.10;86.00
2897;DHT22;1458;49.728;9.228;2022-10-22T14:34:01;19.00;86.00
2897;DHT22;1458;49.728;9.228;2022-10-22T14:36:28;19.00;87.90
2897;DHT22;1458;49.728;9.228;2022-10-22T14:38:55;19.10;87.50
2897;DHT22;1458;49.728;9.228;2022-10-22T14:41:24;18.90;88.10
2897;DHT22;1458;49.728;9.228;2022-10-22T14:43:52;18.80;87.40
2897;DHT22;1458;49.728;9.228;2022-10-22T14:46:20;18.70;89.10
2897;DHT22;1458;49.728;9.228;2022-10-22T14:48:49;18.70;88.00
2897;DHT22;1458;49.728;9.228;2022-10-22T14:51:18;18.60;90.00
2897;DHT22;1458;49.728;9.228;2022-10-22T14:53:46;18.50;90.10
2897;DHT22;1458;49.728;9.228;2022-10-22T14:56:16;18.30;90.30
2897;DHT22;1458;49.728;9.228;2022-10-22T14:58:46;18.20;91.00
2897;DHT22;1458;49.728;9.228;2022-10-22T15:01:13;18.00;91.70
2897;DHT22;1458;49.728;9.228;2022-10-22T15:03:44;17.90;92.50
2897;DHT22;1458;49.728;9.228;2022-10-22T15:06:13;17.80;93.30
2897;DHT22;1458;49.728;9.228;2022-10-22T15:08:40;17.70;94.30
2897;DHT22;1458;49.728;9.228;2022-10-22T15:11:10;17.50;95.60
2897;DHT22;1458;49.728;9.228;2022-10-22T15:13:39;17.30;96.40
2897;DHT22;1458;49.728;9.228;2022-10-22T15:16:08;17.10;97.80
2897;DHT22;1458;49.728;9.228;2022-10-22T15:18:37;17.00;98.50
2897;DHT22;1458;49.728;9.228;2022-10-22T15:21:06;16.90;99.60
2897;DHT22;1458;49.728;9.228;2022-10-22T15:23:39;16.90;99.90
2897;DHT22;1458;49.728;9.228;2022-10-22T15:26:06;17.10;99.90
2897;DHT22;1458;49.728;9.228;2022-10-22T15:28:35;17.10;99.90
2897;DHT22;1458;49.728;9.228;2022-10-22T15:31:03;17.10;99.90
2897;DHT22;1458;49.728;9.228;2022-10-22T15:33:31;17.00;99.90
2897;DHT22;1458;49.728;9.228;2022-10-22T15:36:08;17.00;99.90
2897;DHT22;1458;49.728;9.228;2022-10-22T15:38:38;16.80;99.90
2897;DHT22;1458;49.728;9.228;2022-10-22T15:41:07;16.80;99.90
2897;DHT22;1458;49.728;9.228;2022-10-22T15:43:36;16.80;99.90
2897;DHT22;1458;49.728;9.228;2022-10-22T15:46:12;16.60;99.90
2897;DHT22;1458;49.728;9.228;2022-10-22T15:48:41;16.60;99.90
2897;DHT22;1458;49.728;9.228;2022-10-22T15:51:13;16.50;99.90
2897;DHT22;1458;49.728;9.228;2022-10-22T15:53:44;16.60;99.90
2897;DHT22;1458;49.728;9.228;2022-10-22T15:56:17;16.50;99.90
2897;DHT22;1458;49.728;9.228;2022-10-22T15:58:45;16.50;99.90
2897;DHT22;1458;49.728;9.228;2022-10-22T16:01:13;16.40;99.90
2897;DHT22;1458;49.728;9.228;2022-10-22T16:03:41;16.40;99.90
2897;DHT22;1458;49.728;9.228;2022-10-22T16:06:09;16.30;99.90
2897;DHT22;1458;49.728;9.228;2022-10-22T16:08:37;16.30;99.90
2897;DHT22;1458;49.728;9.228;2022-10-22T16:11:06;16.20;99.90
2897;DHT22;1458;49.728;9.228;2022-10-22T16:13:35;16.20;99.90
2897;DHT22;1458;49.728;9.228;2022-10-22T16:16:05;16.00;99.90
2897;DHT22;1458;49.728;9.228;2022-10-22T16:18:33;16.00;99.90
2897;DHT22;1458;49.728;9.228;2022-10-22T16:21:00;15.90;99.90
2897;DHT22;1458;49.728;9.228;2022-10-22T16:23:28;15.80;99.90
2897;DHT22;1458;49.728;9.228;2022-10-22T16:25:55;15.70;99.90
2897;DHT22;1458;49.728;9.228;2022-10-22T16:28:24;15.40;99.90
2897;DHT22;1458;49.728;9.228;2022-10-22T16:30:52;15.20;99.90
2897;DHT22;1458;49.728;9.228;2022-10-22T16:33:19;15.00;99.90
2897;DHT22;1458;49.728;9.228;2022-10-22T16:35:49;14.90;99.90